sensor_id;sensor_type;location;lat;lon;timestamp;P1;durP1;ratioP1;P2;durP2;ratioP2
78610;SDS011;67932;50.474;4.436;2023-05-07T00:01:07;6.57;;;3.17;;
78610;SDS011;67932;50.474;4.436;2023-05-07T00:03:33;7.25;;;2.92;;
78610;SDS011;67932;50.474;4.436;2023-05-07T00:05:59;4.80;;;3.05;;
78610;SDS011;67932;50.474;4.436;2023-05-07T00:08:26;6.82;;;3.33;;
78610;SDS011;67932;50.474;4.436;2023-05-07T00:10:52;7.40;;;3.03;;
78610;SDS011;67932;50.474;4.436;2023-05-07T00:13:18;8.45;;;3.03;;
78610;SDS011;67932;50.474;4.436;2023-05-07T00:15:44;7.68;;;2.78;;
78610;SDS011;67932;50.474;4.436;2023-05-07T00:18:11;8.88;;;3.35;;
78610;SDS011;67932;50.474;4.436;2023-05-07T00:20:37;6.57;;;2.80;;
78610;SDS011;67932;50.474;4.436;2023-05-07T00:23:03;6.90;;;2.85;;
78610;SDS011;67932;50.474;4.436;2023-05-07T00:25:29;7.65;;;3.45;;
78610;SDS011;67932;50.474;4.436;2023-05-07T00:27:56;5.22;;;3.30;;
78610;SDS011;67932;50.474;4.436;2023-05-07T00:32:53;7.38;;;2.95;;
78610;SDS011;67932;50.474;4.436;2023-05-07T00:35:20;5.13;;;3.22;;
78610;SDS011;67932;50.474;4.436;2023-05-07T00:37:46;6.40;;;3.00;;
78610;SDS011;67932;50.474;4.436;2023-05-07T00:40:13;9.00;;;2.88;;
78610;SDS011;67932;50.474;4.436;2023-05-07T00:42:39;6.10;;;2.78;;
78610;SDS011;67932;50.474;4.436;2023-05-07T00:45:06;6.63;;;2.72;;
78610;SDS011;67932;50.474;4.436;2023-05-07T00:47:32;6.22;;;2.80;;
78610;SDS011;67932;50.474;4.436;2023-05-07T00:49:59;7.53;;;2.80;;
78610;SDS011;67932;50.474;4.436;2023-05-07T00:52:25;6.70;;;2.83;;
78610;SDS011;67932;50.474;4.436;2023-05-07T00:54:52;8.30;;;2.67;;
78610;SDS011;67932;50.474;4.436;2023-05-07T00:57:20;6.03;;;2.60;;
78610;SDS011;67932;50.474;4.436;2023-05-07T00:59:47;6.40;;;3.35;;
78610;SDS011;67932;50.474;4.436;2023-05-07T01:02:14;5.82;;;2.65;;
78610;SDS011;67932;50.474;4.436;2023-05-07T01:04:40;4.40;;;2.40;;
78610;SDS011;67932;50.474;4.436;2023-05-07T01:07:06;5.70;;;2.22;;
78610;SDS011;67932;50.474;4.436;2023-05-07T01:09:33;6.20;;;2.67;;
78610;SDS011;67932;50.474;4.436;2023-05-07T01:12:01;4.78;;;3.03;;
78610;SDS011;67932;50.474;4.436;2023-05-07T01:14:28;6.53;;;3.05;;
78610;SDS011;67932;50.474;4.436;2023-05-07T01:16:55;5.90;;;3.25;;
78610;SDS011;67932;50.474;4.436;2023-05-07T01:19:22;5.88;;;3.35;;
78610;SDS011;67932;50.474;4.436;2023-05-07T01:21:48;9.98;;;3.95;;
78610;SDS011;67932;50.474;4.436;2023-05-07T01:24:16;8.63;;;3.90;;
78610;SDS011;67932;50.474;4.436;2023-05-07T01:26:43;6.07;;;3.85;;
78610;SDS011;67932;50.474;4.436;2023-05-07T01:29:10;6.97;;;3.53;;
78610;SDS011;67932;50.474;4.436;2023-05-07T01:31:36;5.03;;;3.13;;
78610;SDS011;67932;50.474;4.436;2023-05-07T01:34:04;7.43;;;3.42;;
78610;SDS011;67932;50.474;4.436;2023-05-07T01:36:33;6.68;;;4.35;;
78610;SDS011;67932;50.474;4.436;2023-05-07T01:39:01;7.68;;;3.70;;
78610;SDS011;67932;50.474;4.436;2023-05-07T01:41:28;5.78;;;3.30;;
78610;SDS011;67932;50.474;4.436;2023-05-07T01:43:54;6.95;;;3.90;;
78610;SDS011;67932;50.474;4.436;2023-05-07T01:46:21;7.35;;;3.55;;
78610;SDS011;67932;50.474;4.436;2023-05-07T01:48:47;4.15;;;3.10;;
78610;SDS011;67932;50.474;4.436;2023-05-07T01:51:14;6.80;;;3.58;;
78610;SDS011;67932;50.474;4.436;2023-05-07T01:53:41;5.30;;;3.70;;
78610;SDS011;67932;50.474;4.436;2023-05-07T01:56:08;7.30;;;3.63;;
78610;SDS011;67932;50.474;4.436;2023-05-07T01:58:35;7.35;;;3.90;;
78610;SDS011;67932;50.474;4.436;2023-05-07T02:01:01;9.00;;;3.42;;
78610;SDS011;67932;50.474;4.436;2023-05-07T02:03:27;7.97;;;3.42;;
78610;SDS011;67932;50.474;4.436;2023-05-07T02:05:53;9.18;;;4.40;;
78610;SDS011;67932;50.474;4.436;2023-05-07T02:08:20;7.47;;;3.88;;
78610;SDS011;67932;50.474;4.436;2023-05-07T02:10:46;6.75;;;3.53;;
78610;SDS011;67932;50.474;4.436;2023-05-07T02:13:12;9.20;;;3.80;;
78610;SDS011;67932;50.474;4.436;2023-05-07T02:15:38;10.07;;;4.35;;
78610;SDS011;67932;50.474;4.436;2023-05-07T02:18:05;10.18;;;3.58;;
78610;SDS011;67932;50.474;4.436;2023-05-07T02:20:34;6.65;;;3.90;;
78610;SDS011;67932;50.474;4.436;2023-05-07T02:23:00;7.07;;;3.92;;
78610;SDS011;67932;50.474;4.436;2023-05-07T02:25:26;7.68;;;4.10;;
78610;SDS011;67932;50.474;4.436;2023-05-07T02:27:54;10.13;;;4.22;;
78610;SDS011;67932;50.474;4.436;2023-05-07T02:30:20;7.90;;;4.18;;
78610;SDS011;67932;50.474;4.436;2023-05-07T02:32:46;7.75;;;4.63;;
78610;SDS011;67932;50.474;4.436;2023-05-07T02:35:13;8.18;;;4.05;;
78610;SDS011;67932;50.474;4.436;2023-05-07T02:37:39;6.80;;;4.00;;
78610;SDS011;67932;50.474;4.436;2023-05-07T02:40:05;7.07;;;3.38;;
78610;SDS011;67932;50.474;4.436;2023-05-07T02:42:32;8.13;;;3.80;;
78610;SDS011;67932;50.474;4.436;2023-05-07T02:44:58;8.23;;;3.47;;
78610;SDS011;67932;50.474;4.436;2023-05-07T02:47:24;7.80;;;4.13;;
78610;SDS011;67932;50.474;4.436;2023-05-07T02:49:54;9.23;;;3.42;;
78610;SDS011;67932;50.474;4.436;2023-05-07T02:52:21;7.53;;;3.20;;
78610;SDS011;67932;50.474;4.436;2023-05-07T02:54:47;7.00;;;3.30;;
78610;SDS011;67932;50.474;4.436;2023-05-07T02:57:13;5.13;;;3.30;;
78610;SDS011;67932;50.474;4.436;2023-05-07T02:59:40;7.28;;;3.58;;
78610;SDS011;67932;50.474;4.436;2023-05-07T03:02:06;5.50;;;3.90;;
78610;SDS011;67932;50.474;4.436;2023-05-07T03:04:33;5.65;;;3.60;;
78610;SDS011;67932;50.474;4.436;2023-05-07T03:06:59;5.78;;;3.40;;
78610;SDS011;67932;50.474;4.436;2023-05-07T03:09:25;6.35;;;3.47;;
78610;SDS011;67932;50.474;4.436;2023-05-07T03:11:51;5.82;;;2.80;;
78610;SDS011;67932;50.474;4.436;2023-05-07T03:14:18;6.30;;;3.22;;
78610;SDS011;67932;50.474;4.436;2023-05-07T03:16:44;7.28;;;2.60;;
78610;SDS011;67932;50.474;4.436;2023-05-07T03:19:10;8.10;;;3.47;;
78610;SDS011;67932;50.474;4.436;2023-05-07T03:21:36;6.13;;;3.08;;
78610;SDS011;67932;50.474;4.436;2023-05-07T03:24:02;7.95;;;3.35;;
78610;SDS011;67932;50.474;4.436;2023-05-07T03:26:29;7.03;;;3.45;;
78610;SDS011;67932;50.474;4.436;2023-05-07T03:28:55;7.35;;;3.17;;
78610;SDS011;67932;50.474;4.436;2023-05-07T03:31:21;5.38;;;3.08;;
78610;SDS011;67932;50.474;4.436;2023-05-07T03:33:51;4.30;;;3.33;;
78610;SDS011;67932;50.474;4.436;2023-05-07T03:36:19;9.68;;;3.50;;
78610;SDS011;67932;50.474;4.436;2023-05-07T03:38:46;6.63;;;3.28;;
78610;SDS011;67932;50.474;4.436;2023-05-07T03:41:12;7.40;;;4.65;;
78610;SDS011;67932;50.474;4.436;2023-05-07T03:43:39;6.07;;;3.83;;
78610;SDS011;67932;50.474;4.436;2023-05-07T03:46:05;6.10;;;3.83;;
78610;SDS011;67932;50.474;4.436;2023-05-07T03:48:31;6.05;;;3.28;;
78610;SDS011;67932;50.474;4.436;2023-05-07T03:50:58;7.88;;;3.35;;
78610;SDS011;67932;50.474;4.436;2023-05-07T03:53:24;6.25;;;3.45;;
78610;SDS011;67932;50.474;4.436;2023-05-07T03:55:50;7.03;;;3.20;;
78610;SDS011;67932;50.474;4.436;2023-05-07T03:58:17;6.63;;;3.20;;
78610;SDS011;67932;50.474;4.436;2023-05-07T04:00:43;6.97;;;3.40;;
78610;SDS011;67932;50.474;4.436;2023-05-07T04:03:09;5.07;;;3.35;;
78610;SDS011;67932;50.474;4.436;2023-05-07T04:05:36;9.30;;;3.63;;
78610;SDS011;67932;50.474;4.436;2023-05-07T04:08:02;8.63;;;3.55;;
78610;SDS011;67932;50.474;4.436;2023-05-07T04:10:29;4.97;;;2.97;;
78610;SDS011;67932;50.474;4.436;2023-05-07T04:12:55;6.68;;;2.90;;
78610;SDS011;67932;50.474;4.436;2023-05-07T04:15:22;6.00;;;3.67;;
78610;SDS011;67932;50.474;4.436;2023-05-07T04:17:49;5.15;;;3.35;;
78610;SDS011;67932;50.474;4.436;2023-05-07T04:20:16;7.72;;;3.58;;
78610;SDS011;67932;50.474;4.436;2023-05-07T04:22:42;7.32;;;3.25;;
78610;SDS011;67932;50.474;4.436;2023-05-07T04:25:09;6.70;;;3.45;;
78610;SDS011;67932;50.474;4.436;2023-05-07T04:27:35;5.53;;;3.00;;
78610;SDS011;67932;50.474;4.436;2023-05-07T04:30:02;9.40;;;3.63;;
78610;SDS011;67932;50.474;4.436;2023-05-07T04:32:29;5.10;;;2.83;;
78610;SDS011;67932;50.474;4.436;2023-05-07T04:34:56;9.20;;;3.92;;
78610;SDS011;67932;50.474;4.436;2023-05-07T04:37:22;6.45;;;2.67;;
78610;SDS011;67932;50.474;4.436;2023-05-07T04:39:50;4.90;;;3.03;;
78610;SDS011;67932;50.474;4.436;2023-05-07T04:42:16;5.85;;;3.03;;
78610;SDS011;67932;50.474;4.436;2023-05-07T04:44:44;7.00;;;3.53;;
78610;SDS011;67932;50.474;4.436;2023-05-07T04:47:11;6.07;;;3.45;;
78610;SDS011;67932;50.474;4.436;2023-05-07T04:49:38;6.18;;;2.95;;
78610;SDS011;67932;50.474;4.436;2023-05-07T04:52:04;7.40;;;3.22;;
78610;SDS011;67932;50.474;4.436;2023-05-07T04:54:30;7.78;;;3.35;;
78610;SDS011;67932;50.474;4.436;2023-05-07T04:56:57;4.40;;;3.15;;
78610;SDS011;67932;50.474;4.436;2023-05-07T04:59:23;4.20;;;2.75;;
78610;SDS011;67932;50.474;4.436;2023-05-07T05:01:49;5.00;;;2.97;;
78610;SDS011;67932;50.474;4.436;2023-05-07T05:04:15;6.68;;;3.20;;
78610;SDS011;67932;50.474;4.436;2023-05-07T05:06:41;4.30;;;2.63;;
78610;SDS011;67932;50.474;4.436;2023-05-07T05:09:08;4.43;;;2.55;;
78610;SDS011;67932;50.474;4.436;2023-05-07T05:11:34;3.95;;;2.65;;
78610;SDS011;67932;50.474;4.436;2023-05-07T05:14:00;4.50;;;3.65;;
78610;SDS011;67932;50.474;4.436;2023-05-07T05:16:27;6.53;;;2.75;;
78610;SDS011;67932;50.474;4.436;2023-05-07T05:18:53;5.75;;;2.50;;
78610;SDS011;67932;50.474;4.436;2023-05-07T05:21:20;6.28;;;3.03;;
78610;SDS011;67932;50.474;4.436;2023-05-07T05:23:46;4.78;;;2.75;;
78610;SDS011;67932;50.474;4.436;2023-05-07T05:26:13;6.05;;;3.30;;
78610;SDS011;67932;50.474;4.436;2023-05-07T05:28:39;4.75;;;3.90;;
78610;SDS011;67932;50.474;4.436;2023-05-07T05:31:05;5.68;;;3.25;;
78610;SDS011;67932;50.474;4.436;2023-05-07T05:33:31;6.97;;;2.88;;
78610;SDS011;67932;50.474;4.436;2023-05-07T05:35:58;9.60;;;3.33;;
78610;SDS011;67932;50.474;4.436;2023-05-07T05:38:24;8.18;;;5.28;;
78610;SDS011;67932;50.474;4.436;2023-05-07T05:40:51;9.00;;;4.95;;
78610;SDS011;67932;50.474;4.436;2023-05-07T05:43:17;8.32;;;5.30;;
78610;SDS011;67932;50.474;4.436;2023-05-07T05:45:43;6.95;;;3.83;;
78610;SDS011;67932;50.474;4.436;2023-05-07T05:48:09;8.43;;;4.45;;
78610;SDS011;67932;50.474;4.436;2023-05-07T05:50:35;7.05;;;4.10;;
78610;SDS011;67932;50.474;4.436;2023-05-07T05:53:02;4.70;;;3.58;;
78610;SDS011;67932;50.474;4.436;2023-05-07T05:55:28;7.55;;;3.88;;
78610;SDS011;67932;50.474;4.436;2023-05-07T05:57:57;4.95;;;3.20;;
78610;SDS011;67932;50.474;4.436;2023-05-07T06:00:25;10.80;;;3.85;;
78610;SDS011;67932;50.474;4.436;2023-05-07T06:02:52;6.60;;;3.50;;
78610;SDS011;67932;50.474;4.436;2023-05-07T06:05:18;8.23;;;3.88;;
78610;SDS011;67932;50.474;4.436;2023-05-07T06:07:44;6.75;;;4.32;;
78610;SDS011;67932;50.474;4.436;2023-05-07T06:10:10;4.85;;;3.20;;
78610;SDS011;67932;50.474;4.436;2023-05-07T06:12:37;6.30;;;3.03;;
78610;SDS011;67932;50.474;4.436;2023-05-07T06:15:03;7.05;;;3.40;;
78610;SDS011;67932;50.474;4.436;2023-05-07T06:17:30;7.15;;;3.38;;
78610;SDS011;67932;50.474;4.436;2023-05-07T06:19:56;8.90;;;3.50;;
78610;SDS011;67932;50.474;4.436;2023-05-07T06:22:23;6.32;;;3.35;;
78610;SDS011;67932;50.474;4.436;2023-05-07T06:24:49;7.15;;;3.75;;
78610;SDS011;67932;50.474;4.436;2023-05-07T06:27:15;7.38;;;3.88;;
78610;SDS011;67932;50.474;4.436;2023-05-07T06:29:42;7.35;;;3.67;;
78610;SDS011;67932;50.474;4.436;2023-05-07T06:34:38;6.53;;;3.05;;
78610;SDS011;67932;50.474;4.436;2023-05-07T06:37:05;9.60;;;4.15;;
78610;SDS011;67932;50.474;4.436;2023-05-07T06:39:32;8.20;;;4.20;;
78610;SDS011;67932;50.474;4.436;2023-05-07T06:41:59;6.70;;;3.53;;
78610;SDS011;67932;50.474;4.436;2023-05-07T06:44:25;7.85;;;3.72;;
78610;SDS011;67932;50.474;4.436;2023-05-07T06:46:52;7.90;;;4.05;;
78610;SDS011;67932;50.474;4.436;2023-05-07T06:49:18;5.45;;;3.53;;
78610;SDS011;67932;50.474;4.436;2023-05-07T06:51:44;6.97;;;3.60;;
78610;SDS011;67932;50.474;4.436;2023-05-07T06:54:10;7.68;;;3.55;;
78610;SDS011;67932;50.474;4.436;2023-05-07T06:56:37;7.00;;;3.70;;
78610;SDS011;67932;50.474;4.436;2023-05-07T06:59:03;10.05;;;4.07;;
78610;SDS011;67932;50.474;4.436;2023-05-07T07:01:29;5.68;;;3.85;;
78610;SDS011;67932;50.474;4.436;2023-05-07T07:03:55;4.82;;;3.45;;
78610;SDS011;67932;50.474;4.436;2023-05-07T07:06:22;5.15;;;3.85;;
78610;SDS011;67932;50.474;4.436;2023-05-07T07:08:48;6.15;;;3.55;;
78610;SDS011;67932;50.474;4.436;2023-05-07T07:11:14;6.47;;;4.00;;
78610;SDS011;67932;50.474;4.436;2023-05-07T07:13:41;7.18;;;3.88;;
78610;SDS011;67932;50.474;4.436;2023-05-07T07:16:08;5.70;;;3.75;;
78610;SDS011;67932;50.474;4.436;2023-05-07T07:18:34;8.20;;;4.00;;
78610;SDS011;67932;50.474;4.436;2023-05-07T07:21:00;7.00;;;3.63;;
78610;SDS011;67932;50.474;4.436;2023-05-07T07:23:27;6.13;;;3.60;;
78610;SDS011;67932;50.474;4.436;2023-05-07T07:25:53;7.88;;;4.13;;
78610;SDS011;67932;50.474;4.436;2023-05-07T07:28:20;4.20;;;3.38;;
78610;SDS011;67932;50.474;4.436;2023-05-07T07:30:47;5.05;;;3.47;;
78610;SDS011;67932;50.474;4.436;2023-05-07T07:33:13;6.18;;;3.58;;
78610;SDS011;67932;50.474;4.436;2023-05-07T07:35:39;6.25;;;3.60;;
78610;SDS011;67932;50.474;4.436;2023-05-07T07:38:06;6.88;;;3.47;;
78610;SDS011;67932;50.474;4.436;2023-05-07T07:40:34;7.30;;;3.70;;
78610;SDS011;67932;50.474;4.436;2023-05-07T07:43:00;7.00;;;4.32;;
78610;SDS011;67932;50.474;4.436;2023-05-07T07:45:27;7.30;;;3.83;;
78610;SDS011;67932;50.474;4.436;2023-05-07T07:47:54;5.68;;;3.88;;
78610;SDS011;67932;50.474;4.436;2023-05-07T07:50:20;7.25;;;3.72;;
78610;SDS011;67932;50.474;4.436;2023-05-07T07:52:46;9.13;;;4.40;;
78610;SDS011;67932;50.474;4.436;2023-05-07T07:55:13;9.68;;;4.47;;
78610;SDS011;67932;50.474;4.436;2023-05-07T07:57:43;6.75;;;4.40;;
78610;SDS011;67932;50.474;4.436;2023-05-07T08:00:09;9.18;;;4.78;;
78610;SDS011;67932;50.474;4.436;2023-05-07T08:02:36;9.77;;;5.65;;
78610;SDS011;67932;50.474;4.436;2023-05-07T08:05:02;9.35;;;5.28;;
78610;SDS011;67932;50.474;4.436;2023-05-07T08:07:29;8.10;;;4.97;;
78610;SDS011;67932;50.474;4.436;2023-05-07T08:09:55;9.32;;;5.60;;
78610;SDS011;67932;50.474;4.436;2023-05-07T08:12:21;9.77;;;6.38;;
78610;SDS011;67932;50.474;4.436;2023-05-07T08:14:47;8.23;;;5.38;;
78610;SDS011;67932;50.474;4.436;2023-05-07T08:17:14;7.28;;;5.25;;
78610;SDS011;67932;50.474;4.436;2023-05-07T08:19:41;8.00;;;5.05;;
78610;SDS011;67932;50.474;4.436;2023-05-07T08:22:09;6.88;;;5.28;;
78610;SDS011;67932;50.474;4.436;2023-05-07T08:24:35;7.30;;;4.70;;
78610;SDS011;67932;50.474;4.436;2023-05-07T08:27:01;6.97;;;4.70;;
78610;SDS011;67932;50.474;4.436;2023-05-07T08:29:28;8.27;;;4.32;;
78610;SDS011;67932;50.474;4.436;2023-05-07T08:31:54;6.88;;;4.18;;
78610;SDS011;67932;50.474;4.436;2023-05-07T08:34:21;6.13;;;4.20;;
78610;SDS011;67932;50.474;4.436;2023-05-07T08:36:47;7.53;;;3.88;;
78610;SDS011;67932;50.474;4.436;2023-05-07T08:39:17;8.00;;;4.03;;
78610;SDS011;67932;50.474;4.436;2023-05-07T08:41:46;8.63;;;4.40;;
78610;SDS011;67932;50.474;4.436;2023-05-07T08:44:15;6.97;;;4.30;;
78610;SDS011;67932;50.474;4.436;2023-05-07T08:46:46;8.95;;;4.55;;
78610;SDS011;67932;50.474;4.436;2023-05-07T08:49:14;5.95;;;4.47;;
78610;SDS011;67932;50.474;4.436;2023-05-07T08:51:41;9.50;;;4.85;;
78610;SDS011;67932;50.474;4.436;2023-05-07T08:54:07;7.15;;;4.70;;
78610;SDS011;67932;50.474;4.436;2023-05-07T08:56:35;9.02;;;4.80;;
78610;SDS011;67932;50.474;4.436;2023-05-07T08:59:01;9.30;;;5.60;;
78610;SDS011;67932;50.474;4.436;2023-05-07T09:01:28;10.85;;;6.95;;
78610;SDS011;67932;50.474;4.436;2023-05-07T09:03:54;12.45;;;7.38;;
78610;SDS011;67932;50.474;4.436;2023-05-07T09:06:21;10.07;;;6.40;;
78610;SDS011;67932;50.474;4.436;2023-05-07T09:08:51;13.73;;;7.05;;
78610;SDS011;67932;50.474;4.436;2023-05-07T09:11:21;10.48;;;7.18;;
78610;SDS011;67932;50.474;4.436;2023-05-07T09:13:49;8.85;;;7.18;;
78610;SDS011;67932;50.474;4.436;2023-05-07T09:16:21;9.50;;;7.53;;
78610;SDS011;67932;50.474;4.436;2023-05-07T09:18:48;15.63;;;9.23;;
78610;SDS011;67932;50.474;4.436;2023-05-07T09:21:17;19.15;;;11.68;;
78610;SDS011;67932;50.474;4.436;2023-05-07T09:23:44;22.27;;;12.43;;
78610;SDS011;67932;50.474;4.436;2023-05-07T09:26:12;23.13;;;13.10;;
78610;SDS011;67932;50.474;4.436;2023-05-07T09:28:40;22.05;;;12.30;;
78610;SDS011;67932;50.474;4.436;2023-05-07T09:31:07;22.90;;;12.48;;
78610;SDS011;67932;50.474;4.436;2023-05-07T09:33:34;24.90;;;13.13;;
78610;SDS011;67932;50.474;4.436;2023-05-07T09:36:04;22.83;;;11.80;;
78610;SDS011;67932;50.474;4.436;2023-05-07T09:38:32;20.00;;;10.45;;
78610;SDS011;67932;50.474;4.436;2023-05-07T09:41:09;20.27;;;10.75;;
78610;SDS011;67932;50.474;4.436;2023-05-07T09:43:37;17.40;;;10.48;;
78610;SDS011;67932;50.474;4.436;2023-05-07T09:48:38;17.63;;;9.68;;
78610;SDS011;67932;50.474;4.436;2023-05-07T09:51:09;17.15;;;9.65;;
78610;SDS011;67932;50.474;4.436;2023-05-07T09:53:54;13.15;;;7.35;;
78610;SDS011;67932;50.474;4.436;2023-05-07T09:56:21;14.15;;;7.85;;
78610;SDS011;67932;50.474;4.436;2023-05-07T09:58:49;13.13;;;6.97;;
78610;SDS011;67932;50.474;4.436;2023-05-07T10:01:19;10.68;;;5.82;;
78610;SDS011;67932;50.474;4.436;2023-05-07T10:03:47;12.10;;;7.15;;
78610;SDS011;67932;50.474;4.436;2023-05-07T10:06:16;9.45;;;5.93;;
78610;SDS011;67932;50.474;4.436;2023-05-07T10:08:42;9.52;;;5.90;;
78610;SDS011;67932;50.474;4.436;2023-05-07T10:11:10;14.20;;;7.25;;
78610;SDS011;67932;50.474;4.436;2023-05-07T10:13:36;8.32;;;6.57;;
78610;SDS011;67932;50.474;4.436;2023-05-07T10:16:03;14.70;;;7.90;;
78610;SDS011;67932;50.474;4.436;2023-05-07T10:18:31;15.32;;;8.60;;
78610;SDS011;67932;50.474;4.436;2023-05-07T10:23:36;11.27;;;7.03;;
78610;SDS011;67932;50.474;4.436;2023-05-07T10:26:04;9.82;;;6.90;;
78610;SDS011;67932;50.474;4.436;2023-05-07T10:28:33;11.10;;;7.07;;
78610;SDS011;67932;50.474;4.436;2023-05-07T10:33:48;15.73;;;6.47;;
78610;SDS011;67932;50.474;4.436;2023-05-07T10:36:17;10.35;;;6.47;;
78610;SDS011;67932;50.474;4.436;2023-05-07T10:38:44;10.82;;;6.68;;
78610;SDS011;67932;50.474;4.436;2023-05-07T10:41:11;7.55;;;5.40;;
78610;SDS011;67932;50.474;4.436;2023-05-07T10:43:41;8.48;;;5.95;;
78610;SDS011;67932;50.474;4.436;2023-05-07T10:46:10;11.43;;;6.55;;
78610;SDS011;67932;50.474;4.436;2023-05-07T10:51:31;7.95;;;4.78;;
78610;SDS011;67932;50.474;4.436;2023-05-07T10:56:36;5.78;;;3.28;;
78610;SDS011;67932;50.474;4.436;2023-05-07T11:02:00;5.47;;;3.45;;
78610;SDS011;67932;50.474;4.436;2023-05-07T11:04:31;5.93;;;3.72;;
78610;SDS011;67932;50.474;4.436;2023-05-07T11:15:02;9.52;;;5.72;;
78610;SDS011;67932;50.474;4.436;2023-05-07T11:17:34;7.90;;;5.13;;
78610;SDS011;67932;50.474;4.436;2023-05-07T11:20:20;5.50;;;4.57;;
78610;SDS011;67932;50.474;4.436;2023-05-07T11:23:08;15.60;;;5.45;;
78610;SDS011;67932;50.474;4.436;2023-05-07T11:25:57;6.30;;;4.50;;
78610;SDS011;67932;50.474;4.436;2023-05-07T11:28:29;5.78;;;3.92;;
78610;SDS011;67932;50.474;4.436;2023-05-07T11:30:56;6.65;;;4.63;;
78610;SDS011;67932;50.474;4.436;2023-05-07T11:33:23;7.88;;;4.82;;
78610;SDS011;67932;50.474;4.436;2023-05-07T11:35:53;5.43;;;4.35;;
78610;SDS011;67932;50.474;4.436;2023-05-07T11:38:19;6.10;;;4.32;;
78610;SDS011;67932;50.474;4.436;2023-05-07T11:40:50;5.22;;;3.75;;
78610;SDS011;67932;50.474;4.436;2023-05-07T11:43:27;4.97;;;3.55;;
78610;SDS011;67932;50.474;4.436;2023-05-07T11:45:53;5.45;;;3.83;;
78610;SDS011;67932;50.474;4.436;2023-05-07T11:48:20;5.20;;;4.07;;
78610;SDS011;67932;50.474;4.436;2023-05-07T11:50:53;4.10;;;3.50;;
78610;SDS011;67932;50.474;4.436;2023-05-07T11:53:28;4.18;;;3.10;;
78610;SDS011;67932;50.474;4.436;2023-05-07T11:56:08;6.90;;;4.25;;
78610;SDS011;67932;50.474;4.436;2023-05-07T11:58:39;5.53;;;4.30;;
78610;SDS011;67932;50.474;4.436;2023-05-07T12:01:10;5.85;;;3.80;;
78610;SDS011;67932;50.474;4.436;2023-05-07T12:03:39;5.30;;;3.85;;
78610;SDS011;67932;50.474;4.436;2023-05-07T12:06:16;4.47;;;3.45;;
78610;SDS011;67932;50.474;4.436;2023-05-07T12:08:43;4.50;;;2.90;;
78610;SDS011;67932;50.474;4.436;2023-05-07T12:11:15;3.80;;;2.67;;
78610;SDS011;67932;50.474;4.436;2023-05-07T12:13:47;3.22;;;2.70;;
78610;SDS011;67932;50.474;4.436;2023-05-07T12:16:13;3.55;;;2.60;;
78610;SDS011;67932;50.474;4.436;2023-05-07T12:18:40;4.40;;;2.60;;
78610;SDS011;67932;50.474;4.436;2023-05-07T12:21:06;3.30;;;2.47;;
78610;SDS011;67932;50.474;4.436;2023-05-07T12:23:34;3.67;;;3.25;;
78610;SDS011;67932;50.474;4.436;2023-05-07T12:26:01;3.60;;;2.20;;
78610;SDS011;67932;50.474;4.436;2023-05-07T12:28:27;3.45;;;2.25;;
78610;SDS011;67932;50.474;4.436;2023-05-07T12:30:55;2.10;;;1.90;;
78610;SDS011;67932;50.474;4.436;2023-05-07T12:33:25;2.78;;;2.22;;
78610;SDS011;67932;50.474;4.436;2023-05-07T12:35:54;2.60;;;1.80;;
78610;SDS011;67932;50.474;4.436;2023-05-07T12:38:21;2.38;;;1.90;;
78610;SDS011;67932;50.474;4.436;2023-05-07T12:40:48;4.10;;;2.30;;
78610;SDS011;67932;50.474;4.436;2023-05-07T12:43:25;3.00;;;1.90;;
78610;SDS011;67932;50.474;4.436;2023-05-07T12:45:56;4.30;;;1.80;;
78610;SDS011;67932;50.474;4.436;2023-05-07T12:48:25;2.78;;;2.15;;
78610;SDS011;67932;50.474;4.436;2023-05-07T12:50:54;2.42;;;2.17;;
78610;SDS011;67932;50.474;4.436;2023-05-07T12:53:25;4.97;;;2.90;;
78610;SDS011;67932;50.474;4.436;2023-05-07T12:55:53;5.32;;;2.80;;
78610;SDS011;67932;50.474;4.436;2023-05-07T12:58:23;3.45;;;2.88;;
78610;SDS011;67932;50.474;4.436;2023-05-07T13:00:55;3.25;;;2.90;;
78610;SDS011;67932;50.474;4.436;2023-05-07T13:06:15;4.85;;;3.20;;
78610;SDS011;67932;50.474;4.436;2023-05-07T13:08:42;4.47;;;3.10;;
78610;SDS011;67932;50.474;4.436;2023-05-07T13:11:08;4.93;;;3.65;;
78610;SDS011;67932;50.474;4.436;2023-05-07T13:13:36;5.13;;;3.22;;
78610;SDS011;67932;50.474;4.436;2023-05-07T13:16:05;4.20;;;2.78;;
78610;SDS011;67932;50.474;4.436;2023-05-07T13:18:33;2.70;;;1.83;;
78610;SDS011;67932;50.474;4.436;2023-05-07T13:20:59;3.97;;;2.70;;
78610;SDS011;67932;50.474;4.436;2023-05-07T13:23:27;4.22;;;2.60;;
78610;SDS011;67932;50.474;4.436;2023-05-07T13:25:53;3.72;;;2.60;;
78610;SDS011;67932;50.474;4.436;2023-05-07T13:28:20;4.15;;;2.60;;
78610;SDS011;67932;50.474;4.436;2023-05-07T13:30:48;4.75;;;2.60;;
78610;SDS011;67932;50.474;4.436;2023-05-07T13:33:16;4.95;;;3.20;;
78610;SDS011;67932;50.474;4.436;2023-05-07T13:35:44;5.68;;;3.22;;
78610;SDS011;67932;50.474;4.436;2023-05-07T13:38:10;5.45;;;3.53;;
78610;SDS011;67932;50.474;4.436;2023-05-07T13:40:36;3.50;;;2.42;;
78610;SDS011;67932;50.474;4.436;2023-05-07T13:43:05;4.55;;;3.28;;
78610;SDS011;67932;50.474;4.436;2023-05-07T13:45:31;5.82;;;3.42;;
78610;SDS011;67932;50.474;4.436;2023-05-07T13:47:58;4.68;;;3.28;;
78610;SDS011;67932;50.474;4.436;2023-05-07T13:50:24;4.47;;;3.45;;
78610;SDS011;67932;50.474;4.436;2023-05-07T13:52:52;5.00;;;3.92;;
78610;SDS011;67932;50.474;4.436;2023-05-07T13:55:18;4.63;;;4.22;;
78610;SDS011;67932;50.474;4.436;2023-05-07T13:57:45;4.78;;;3.97;;
78610;SDS011;67932;50.474;4.436;2023-05-07T14:00:13;5.15;;;3.83;;
78610;SDS011;67932;50.474;4.436;2023-05-07T14:02:41;3.75;;;3.03;;
78610;SDS011;67932;50.474;4.436;2023-05-07T14:05:07;4.68;;;3.38;;
78610;SDS011;67932;50.474;4.436;2023-05-07T14:07:34;4.32;;;3.47;;
78610;SDS011;67932;50.474;4.436;2023-05-07T14:10:01;4.15;;;3.75;;
78610;SDS011;67932;50.474;4.436;2023-05-07T14:12:27;6.07;;;4.22;;
78610;SDS011;67932;50.474;4.436;2023-05-07T14:14:54;10.90;;;6.78;;
78610;SDS011;67932;50.474;4.436;2023-05-07T14:17:21;17.98;;;10.50;;
78610;SDS011;67932;50.474;4.436;2023-05-07T14:19:50;12.55;;;7.88;;
78610;SDS011;67932;50.474;4.436;2023-05-07T14:22:18;6.70;;;6.10;;
78610;SDS011;67932;50.474;4.436;2023-05-07T14:24:47;4.70;;;3.65;;
78610;SDS011;67932;50.474;4.436;2023-05-07T14:27:14;3.65;;;2.33;;
78610;SDS011;67932;50.474;4.436;2023-05-07T14:29:40;3.58;;;2.65;;
78610;SDS011;67932;50.474;4.436;2023-05-07T14:32:07;2.88;;;2.30;;
78610;SDS011;67932;50.474;4.436;2023-05-07T14:34:34;2.10;;;1.75;;
78610;SDS011;67932;50.474;4.436;2023-05-07T14:37:00;2.53;;;1.95;;
78610;SDS011;67932;50.474;4.436;2023-05-07T14:39:26;2.58;;;1.90;;
78610;SDS011;67932;50.474;4.436;2023-05-07T14:41:53;3.70;;;2.33;;
78610;SDS011;67932;50.474;4.436;2023-05-07T14:44:20;2.30;;;2.10;;
78610;SDS011;67932;50.474;4.436;2023-05-07T14:46:46;1.83;;;1.70;;
78610;SDS011;67932;50.474;4.436;2023-05-07T14:49:13;2.40;;;1.65;;
78610;SDS011;67932;50.474;4.436;2023-05-07T14:51:45;1.95;;;1.35;;
78610;SDS011;67932;50.474;4.436;2023-05-07T14:54:12;2.55;;;1.90;;
78610;SDS011;67932;50.474;4.436;2023-05-07T14:56:39;2.63;;;1.77;;
78610;SDS011;67932;50.474;4.436;2023-05-07T14:59:06;1.88;;;1.67;;
78610;SDS011;67932;50.474;4.436;2023-05-07T15:01:36;2.08;;;1.75;;
78610;SDS011;67932;50.474;4.436;2023-05-07T15:04:03;2.92;;;1.92;;
78610;SDS011;67932;50.474;4.436;2023-05-07T15:06:30;1.52;;;1.42;;
78610;SDS011;67932;50.474;4.436;2023-05-07T15:08:57;2.00;;;1.63;;
78610;SDS011;67932;50.474;4.436;2023-05-07T15:11:23;2.72;;;1.77;;
78610;SDS011;67932;50.474;4.436;2023-05-07T15:13:49;2.50;;;1.85;;
78610;SDS011;67932;50.474;4.436;2023-05-07T15:16:15;5.25;;;1.88;;
78610;SDS011;67932;50.474;4.436;2023-05-07T15:18:42;3.55;;;2.03;;